ruralking.com alexa rank chart, ruralking.com alexa rank daily changes

ruralking.com alexa rank chart, ruralking.com alexa rank daily changes

ruralking.com
Actual rank:
53 496

RANK HISTORY

Date Rank Diff
2017/11/20 53 496 -632
2017/11/19 54 128 -346
2017/11/18 54 474 -625
2017/11/17 55 099 +576
2017/11/16 54 523 -624
2017/11/15 55 147 -701
2017/11/14 55 848 -1 316
2017/11/13 57 164 -961
2017/11/12 58 125 -170
2017/11/11 58 295 -227
2017/11/10 58 522 +1 020
2017/11/09 57 502 +844
2017/11/08 56 658 -573
2017/11/07 57 231 -373
2017/11/06 57 604 +727
2017/11/05 56 877 +632
2017/11/04 56 245 +144
2017/11/03 56 101 +575
2017/11/02 55 526 +1 018
2017/11/01 54 508 +236
2017/10/31 54 272 +701
2017/10/30 53 571 +688
2017/10/29 52 883 -218
2017/10/28 53 101 -379
2017/10/27 53 480 +69
2017/10/26 53 411 +361
2017/10/25 53 050 -31
2017/10/24 53 081 -715
2017/10/23 53 796 -453
2017/10/22 54 249 -356
2017/10/21 54 605 -728
2017/10/20 55 333 -424
2017/10/19 55 757 -64
2017/10/18 55 821 +114
2017/10/17 55 707 -1 516
2017/10/16 57 223 +1 124
2017/10/14 56 099 +277
2017/10/13 55 822 -375
2017/10/12 56 197 -129
2017/10/11 56 326 -152
2017/10/10 56 478 -528
2017/10/09 57 006 -1 302
2017/10/08 58 308 +186
2017/10/07 58 122 +157
2017/10/06 57 965 -898
2017/10/05 58 863 -392
2017/10/04 59 255 +219
2017/10/03 59 036 -585
2017/10/02 59 621 -907
2017/10/01 60 528 -1 163
2017/09/30 61 691 -1 254
2017/09/29 62 945 +1
2017/09/28 62 944 +523
2017/09/27 62 421 +291
2017/09/26 62 130 -300
2017/09/25 62 430 -528
2017/09/24 62 958 -262
2017/09/23 63 220 +1 951
2017/09/22 61 269

WIDGET FOR YOUR SITE

DOMAINS WITH THE NEAREST RANK

Domain Rank
steamidfinder.com 53 491
bpm-power.com 53 492
datos.gob.mx 53 493
regionoperator.ru 53 494
jakubmarian.com 53 495
ruralking.com 53 496
solidcpm.com 53 497
ownersdirect.co.uk 53 498
spetteguless.it 53 499
boo.jp 53 500
hirensbootcd.org 53 501

DOMAINS WITH THE NEAREST RANK BY TLD .com

Domain Rank
mysitemyway.com 53 487
freenoob.com 53 490
steamidfinder.com 53 491
bpm-power.com 53 492
jakubmarian.com 53 495
ruralking.com 53 496
solidcpm.com 53 497
franklintempletonindia.com 53 502
grouphighlight.com 53 503
wtffunfact.com 53 504
anysearchmac.com 53 505